createdAt,value
2019-06-27T00:00:35.488Z,23.58
2019-06-27T00:03:05.648Z,23.55
2019-06-27T00:05:35.275Z,23.52
2019-06-27T00:08:04.947Z,23.52
2019-06-27T00:10:35.145Z,23.54
2019-06-27T00:13:04.932Z,23.57
2019-06-27T00:15:34.658Z,23.58
2019-06-27T00:18:04.388Z,23.50
2019-06-27T00:20:34.192Z,23.41
2019-06-27T00:23:03.897Z,23.33
2019-06-27T00:25:33.531Z,23.29
2019-06-27T00:28:03.322Z,23.27
2019-06-27T00:30:33.455Z,23.21
2019-06-27T00:33:03.145Z,23.17
2019-06-27T00:35:32.779Z,23.09
2019-06-27T00:38:02.451Z,23.00
2019-06-27T00:40:32.079Z,22.96
2019-06-27T00:43:02.013Z,22.99
2019-06-27T00:45:31.689Z,22.94
2019-06-27T00:48:01.309Z,22.76
2019-06-27T00:50:30.932Z,22.58
2019-06-27T00:53:00.592Z,22.44
2019-06-27T00:55:30.206Z,22.28
2019-06-27T00:57:59.829Z,22.19
2019-06-27T01:00:29.498Z,22.16
2019-06-27T01:02:59.119Z,22.18
2019-06-27T01:05:28.813Z,22.12
2019-06-27T01:07:58.514Z,22.01
2019-06-27T01:10:28.140Z,21.91
2019-06-27T01:12:57.768Z,21.96
2019-06-27T01:15:27.516Z,22.05
2019-06-27T01:17:57.410Z,22.10
2019-06-27T01:20:27.035Z,22.09
2019-06-27T01:22:56.954Z,22.17
2019-06-27T01:25:27.140Z,22.18
2019-06-27T01:27:56.773Z,22.23
2019-06-27T01:30:27.481Z,22.24
2019-06-27T01:32:57.078Z,22.29
2019-06-27T01:35:26.698Z,22.33
2019-06-27T01:37:56.359Z,22.33
2019-06-27T01:40:26.462Z,22.39
2019-06-27T01:42:56.657Z,22.40
2019-06-27T01:45:28.005Z,22.33
2019-06-27T01:47:57.630Z,22.22
2019-06-27T01:50:27.264Z,22.12
2019-06-27T01:52:56.945Z,22.05
2019-06-27T01:55:27.527Z,21.98
2019-06-27T01:57:57.157Z,21.91
2019-06-27T02:00:27.434Z,21.88
2019-06-27T02:02:57.068Z,21.81
2019-06-27T02:05:26.723Z,21.85
2019-06-27T02:07:56.430Z,21.83
2019-06-27T02:10:26.064Z,21.79
2019-06-27T02:12:55.867Z,21.79
2019-06-27T02:15:27.622Z,21.77
2019-06-27T02:17:57.265Z,21.79
2019-06-27T02:20:27.434Z,21.86
2019-06-27T02:22:57.317Z,21.92
2019-06-27T02:25:27.087Z,21.93
2019-06-27T02:28:03.691Z,21.93
2019-06-27T02:30:39.817Z,21.96
2019-06-27T02:33:09.655Z,21.99
2019-06-27T02:35:39.420Z,22.03
2019-06-27T02:38:09.609Z,22.10
2019-06-27T02:40:39.313Z,22.10
2019-06-27T02:43:09.034Z,22.06
2019-06-27T02:45:38.687Z,22.00
2019-06-27T02:48:08.384Z,22.07
2019-06-27T02:50:38.003Z,22.14
2019-06-27T02:53:08.348Z,22.14
2019-06-27T02:55:38.656Z,22.13
2019-06-27T02:58:29.133Z,22.16
2019-06-27T03:00:39.945Z,22.19
2019-06-27T03:03:09.746Z,22.21
2019-06-27T03:05:39.634Z,22.24
2019-06-27T03:08:09.570Z,22.27
2019-06-27T03:10:39.285Z,22.32
2019-06-27T03:13:08.911Z,22.32
2019-06-27T03:15:38.859Z,22.27
2019-06-27T03:18:09.329Z,22.27
2019-06-27T03:20:39.012Z,22.29
2019-06-27T03:23:08.793Z,22.32
2019-06-27T03:25:38.425Z,22.37
2019-06-27T03:28:08.417Z,22.37
2019-06-27T03:30:38.158Z,22.28
2019-06-27T03:33:07.959Z,22.17
2019-06-27T03:35:37.584Z,22.07
2019-06-27T03:38:07.249Z,21.97
2019-06-27T03:40:36.948Z,21.94
2019-06-27T03:43:06.980Z,21.92
2019-06-27T03:45:36.689Z,21.81
2019-06-27T03:48:06.395Z,21.77
2019-06-27T03:50:36.030Z,21.76
2019-06-27T03:53:05.759Z,21.81
2019-06-27T03:55:35.389Z,21.78
2019-06-27T03:58:05.117Z,21.84
2019-06-27T04:00:35.095Z,21.82
2019-06-27T04:03:04.791Z,21.81
2019-06-27T04:05:34.433Z,21.83
2019-06-27T04:08:05.259Z,21.83
2019-06-27T04:10:35.062Z,21.81
2019-06-27T04:13:04.684Z,21.84
2019-06-27T04:15:34.793Z,21.82
2019-06-27T04:18:04.564Z,21.84
2019-06-27T04:20:34.201Z,21.85
2019-06-27T04:23:04.720Z,21.91
2019-06-27T04:25:34.357Z,21.92
2019-06-27T04:28:03.981Z,21.85
2019-06-27T04:30:34.168Z,21.86
2019-06-27T04:33:03.801Z,21.90
2019-06-27T04:35:33.560Z,21.87
2019-06-27T04:38:04.410Z,21.82
2019-06-27T04:40:34.046Z,21.78
2019-06-27T04:43:05.842Z,21.80
2019-06-27T04:45:35.248Z,21.81
2019-06-27T04:48:04.867Z,21.84
2019-06-27T04:50:34.505Z,21.90
2019-06-27T04:53:04.188Z,21.94
2019-06-27T04:55:33.823Z,21.96
2019-06-27T04:58:03.460Z,21.97
2019-06-27T05:00:33.141Z,21.99
2019-06-27T05:03:02.771Z,21.91
2019-06-27T05:05:32.413Z,22.01
2019-06-27T05:08:02.209Z,22.04
2019-06-27T05:10:31.822Z,22.09
2019-06-27T05:13:01.617Z,22.14
2019-06-27T05:15:32.713Z,22.16
2019-06-27T05:18:02.691Z,22.14
2019-06-27T05:20:32.679Z,22.15
2019-06-27T05:23:02.403Z,22.14
2019-06-27T05:25:32.096Z,22.17
2019-06-27T05:28:01.732Z,22.17
2019-06-27T05:30:31.400Z,22.17
2019-06-27T05:33:01.050Z,22.17
2019-06-27T05:35:31.018Z,22.11
2019-06-27T05:38:00.772Z,22.07
2019-06-27T05:40:30.556Z,21.99
2019-06-27T05:43:01.839Z,22.04
2019-06-27T05:45:31.542Z,22.09
2019-06-27T05:48:01.245Z,22.10
2019-06-27T05:50:31.444Z,22.03
2019-06-27T05:53:01.100Z,22.02
2019-06-27T05:55:31.407Z,22.03
2019-06-27T05:58:01.080Z,22.05
2019-06-27T06:00:30.864Z,22.05
2019-06-27T06:03:00.569Z,22.05
2019-06-27T06:05:30.185Z,22.09
2019-06-27T06:07:59.906Z,22.07
2019-06-27T06:10:29.534Z,22.06
2019-06-27T06:13:00.009Z,22.05
2019-06-27T06:15:29.685Z,22.04
2019-06-27T06:17:59.320Z,21.93
2019-06-27T06:20:29.072Z,21.84
2019-06-27T06:22:58.796Z,21.83
2019-06-27T06:25:28.417Z,21.84
2019-06-27T06:27:58.144Z,21.86
2019-06-27T06:30:43.133Z,21.85
2019-06-27T06:32:59.110Z,21.89
2019-06-27T06:35:28.758Z,21.93
2019-06-27T06:37:58.442Z,21.94
2019-06-27T06:40:28.065Z,21.94
2019-06-27T06:43:00.404Z,21.98
2019-06-27T06:45:29.370Z,22.02
2019-06-27T06:47:58.974Z,22.01
2019-06-27T06:50:28.860Z,22.00
2019-06-27T06:52:58.599Z,21.98
2019-06-27T06:55:28.644Z,21.90
2019-06-27T06:57:58.268Z,21.89
2019-06-27T07:00:28.018Z,21.84
2019-06-27T07:02:57.618Z,21.78
2019-06-27T07:05:27.701Z,21.82
2019-06-27T07:07:57.402Z,21.87
2019-06-27T07:10:27.016Z,21.88
2019-06-27T07:12:56.657Z,21.90
2019-06-27T07:15:26.810Z,21.98
2019-06-27T07:17:56.430Z,21.93
2019-06-27T07:20:26.053Z,21.84
2019-06-27T07:22:55.720Z,21.89
2019-06-27T07:25:25.356Z,21.90
2019-06-27T07:27:55.065Z,21.94
2019-06-27T07:30:24.767Z,22.04
2019-06-27T07:32:56.045Z,22.08
2019-06-27T07:35:25.910Z,22.01
2019-06-27T07:37:55.589Z,21.94
2019-06-27T07:40:25.582Z,21.94
2019-06-27T07:42:55.573Z,21.99
2019-06-27T07:45:25.272Z,21.99
2019-06-27T07:47:54.966Z,21.94
2019-06-27T07:50:24.733Z,21.97
2019-06-27T07:52:54.402Z,21.98
2019-06-27T07:55:24.259Z,21.99
2019-06-27T07:57:53.929Z,21.99
2019-06-27T08:00:23.936Z,21.99
2019-06-27T08:02:53.554Z,21.99
2019-06-27T08:05:23.199Z,22.05
2019-06-27T08:07:52.910Z,22.07
2019-06-27T08:10:22.552Z,22.09
2019-06-27T08:12:52.166Z,22.04
2019-06-27T08:15:21.912Z,22.03
2019-06-27T08:17:51.892Z,21.99
2019-06-27T08:20:21.607Z,21.97
2019-06-27T08:22:51.975Z,21.95
2019-06-27T08:25:21.687Z,21.94
2019-06-27T08:27:51.574Z,21.86
2019-06-27T08:30:21.505Z,21.85
2019-06-27T08:32:51.856Z,21.84
2019-06-27T08:35:21.477Z,21.88
2019-06-27T08:37:51.185Z,21.92
2019-06-27T08:40:21.052Z,21.98
2019-06-27T08:42:50.671Z,21.97
2019-06-27T08:45:20.332Z,21.92
2019-06-27T08:47:49.991Z,21.86
2019-06-27T08:50:19.973Z,21.86
2019-06-27T08:52:49.681Z,21.87
2019-06-27T08:55:19.396Z,21.87
2019-06-27T08:57:49.097Z,21.90
2019-06-27T09:00:18.851Z,21.88
2019-06-27T09:02:48.479Z,21.86
2019-06-27T09:05:18.088Z,21.86
2019-06-27T09:07:47.764Z,21.81
2019-06-27T09:10:17.924Z,21.87
2019-06-27T09:12:47.656Z,21.81
2019-06-27T09:15:17.554Z,21.78
2019-06-27T09:17:47.188Z,21.75
2019-06-27T09:20:17.258Z,21.66
2019-06-27T09:22:47.024Z,21.60
2019-06-27T09:25:16.882Z,21.52
2019-06-27T09:27:46.604Z,21.40
2019-06-27T09:30:18.035Z,21.30
2019-06-27T09:32:48.137Z,21.27
2019-06-27T09:35:17.929Z,21.23
2019-06-27T09:37:47.603Z,21.23
2019-06-27T09:40:18.027Z,21.23
2019-06-27T09:42:48.126Z,21.21
2019-06-27T09:45:18.395Z,21.22
2019-06-27T09:47:48.036Z,21.25
2019-06-27T09:50:21.430Z,21.28
2019-06-27T09:52:49.263Z,21.23
2019-06-27T09:55:20.599Z,21.13
2019-06-27T09:57:50.571Z,21.06
2019-06-27T10:00:21.473Z,21.00
2019-06-27T10:02:51.105Z,21.01
2019-06-27T10:05:20.742Z,21.00
2019-06-27T10:07:50.420Z,20.97
2019-06-27T10:10:20.660Z,20.90
2019-06-27T10:12:50.458Z,20.91
2019-06-27T10:15:20.238Z,20.84
2019-06-27T10:17:49.845Z,20.84
2019-06-27T10:20:19.474Z,20.70
2019-06-27T10:22:49.630Z,20.69
2019-06-27T10:25:19.361Z,20.72
2019-06-27T10:27:49.120Z,20.72
2019-06-27T10:30:20.529Z,20.66
2019-06-27T10:32:59.010Z,20.70
2019-06-27T10:35:21.772Z,20.70
2019-06-27T10:37:51.606Z,20.73
2019-06-27T10:40:21.608Z,20.70
2019-06-27T10:42:51.254Z,20.67
2019-06-27T10:45:22.893Z,20.67
2019-06-27T10:47:52.650Z,20.63
2019-06-27T10:50:22.659Z,20.65
2019-06-27T10:52:52.439Z,20.74
2019-06-27T10:55:22.139Z,20.74
2019-06-27T10:57:54.703Z,20.75
2019-06-27T11:00:59.699Z,20.73
2019-06-27T11:03:33.354Z,20.74
2019-06-27T11:06:03.115Z,20.72
2019-06-27T11:08:32.912Z,20.69
2019-06-27T11:11:02.594Z,20.60
2019-06-27T11:13:32.334Z,20.58
2019-06-27T11:16:02.074Z,20.58
2019-06-27T11:18:31.733Z,20.54
2019-06-27T11:21:01.678Z,20.47
2019-06-27T11:23:31.307Z,20.47
2019-06-27T11:26:02.419Z,20.45
2019-06-27T11:28:32.189Z,20.44
2019-06-27T11:31:02.717Z,20.45
2019-06-27T11:33:33.308Z,20.46
2019-06-27T11:36:03.074Z,20.57
2019-06-27T11:38:32.724Z,20.58
2019-06-27T11:41:02.374Z,20.50
2019-06-27T11:43:32.112Z,20.48
2019-06-27T11:46:01.752Z,20.42
2019-06-27T11:48:31.437Z,20.47
2019-06-27T11:51:02.293Z,20.47
2019-06-27T11:53:32.027Z,20.58
2019-06-27T11:56:01.670Z,20.66
2019-06-27T11:58:31.523Z,20.75
2019-06-27T12:01:02.010Z,20.83
2019-06-27T12:03:47.887Z,20.83
2019-06-27T12:06:03.323Z,20.77
2019-06-27T12:08:33.312Z,20.77
2019-06-27T12:11:03.000Z,20.75
2019-06-27T12:13:32.821Z,20.74
2019-06-27T12:16:02.894Z,20.77
2019-06-27T12:18:32.494Z,20.83
2019-06-27T12:21:05.732Z,20.80
2019-06-27T12:23:34.333Z,20.63
2019-06-27T12:26:26.737Z,20.53
2019-06-27T12:29:00.364Z,20.47
2019-06-27T12:31:30.064Z,20.44
2019-06-27T12:34:06.926Z,20.38
2019-06-27T12:36:32.693Z,20.32
2019-06-27T12:39:06.377Z,20.26
2019-06-27T12:41:36.031Z,20.29
2019-06-27T12:44:06.243Z,20.29
2019-06-27T12:46:35.952Z,20.24
2019-06-27T12:49:05.576Z,20.28
2019-06-27T12:51:35.201Z,20.37
2019-06-27T12:54:04.879Z,20.37
2019-06-27T12:56:34.525Z,20.33
2019-06-27T12:59:04.697Z,20.24
2019-06-27T13:01:34.379Z,20.08
2019-06-27T13:04:04.477Z,19.99
2019-06-27T13:06:34.110Z,20.01
2019-06-27T13:09:05.150Z,20.06
2019-06-27T13:11:34.830Z,20.11
2019-06-27T13:14:05.132Z,20.09
2019-06-27T13:16:34.825Z,20.08
2019-06-27T13:22:29.384Z,20.12
2019-06-27T13:25:00.665Z,20.15
2019-06-27T13:27:30.384Z,20.23
2019-06-27T13:30:01.700Z,20.35
2019-06-27T13:32:31.443Z,20.39
2019-06-27T13:35:01.068Z,20.41
2019-06-27T13:37:30.871Z,20.41
2019-06-27T13:40:04.457Z,20.36
2019-06-27T13:42:31.836Z,20.40
2019-06-27T13:45:01.551Z,20.50
2019-06-27T13:47:31.270Z,20.59
2019-06-27T13:50:00.906Z,20.69
2019-06-27T13:52:30.703Z,20.74
2019-06-27T13:55:00.414Z,20.69
2019-06-27T13:57:30.614Z,20.67
2019-06-27T14:00:01.432Z,20.66
2019-06-27T14:02:31.306Z,20.68
2019-06-27T14:05:01.002Z,20.67
2019-06-27T14:07:30.806Z,20.70
2019-06-27T14:10:00.685Z,20.76
2019-06-27T14:12:30.907Z,20.80
2019-06-27T14:15:02.290Z,20.81
2019-06-27T14:17:31.993Z,20.85
2019-06-27T14:20:07.959Z,20.85
2019-06-27T14:22:37.730Z,20.91
2019-06-27T14:25:07.421Z,21.12
2019-06-27T14:27:37.303Z,21.12
2019-06-27T14:30:09.270Z,21.28
2019-06-27T14:32:39.061Z,21.33
2019-06-27T14:35:15.916Z,21.42
2019-06-27T14:37:40.292Z,21.46
2019-06-27T14:40:11.418Z,21.45
2019-06-27T14:42:41.229Z,21.45
2019-06-27T14:45:11.096Z,21.45
2019-06-27T14:47:40.760Z,21.41
2019-06-27T14:50:11.234Z,21.35
2019-06-27T14:52:40.955Z,21.39
2019-06-27T14:55:11.527Z,21.53
2019-06-27T14:57:41.226Z,21.67
2019-06-27T15:00:12.938Z,21.78
2019-06-27T15:02:42.663Z,21.95
2019-06-27T15:05:12.805Z,21.99
2019-06-27T15:07:42.539Z,21.99
2019-06-27T15:10:14.028Z,22.04
2019-06-27T15:12:57.047Z,21.93
2019-06-27T15:15:26.140Z,21.94
2019-06-27T15:17:57.482Z,22.07
2019-06-27T15:20:27.171Z,22.04
2019-06-27T15:22:56.798Z,21.92
2019-06-27T15:25:28.357Z,21.99
2019-06-27T15:27:58.002Z,22.03
2019-06-27T15:30:27.955Z,22.03
2019-06-27T15:32:57.810Z,22.05
2019-06-27T15:35:27.479Z,22.07
2019-06-27T15:38:00.083Z,22.20
2019-06-27T15:40:29.820Z,22.28
2019-06-27T15:42:59.430Z,22.41
2019-06-27T15:45:29.078Z,22.48
2019-06-27T15:47:58.828Z,22.52
2019-06-27T15:50:28.586Z,22.56
2019-06-27T15:52:58.269Z,22.67
2019-06-27T15:55:27.923Z,22.61
2019-06-27T15:57:57.550Z,22.60
2019-06-27T16:00:27.245Z,22.68
2019-06-27T16:02:56.906Z,22.63
2019-06-27T16:05:26.695Z,22.73
2019-06-27T16:07:56.348Z,22.90
2019-06-27T16:10:26.153Z,22.97
2019-06-27T16:12:56.260Z,22.93
2019-06-27T16:15:26.869Z,22.78
2019-06-27T16:17:56.878Z,22.63
2019-06-27T16:20:27.481Z,22.68
2019-06-27T16:22:57.156Z,22.77
2019-06-27T16:25:26.837Z,22.74
2019-06-27T16:27:56.453Z,22.65
2019-06-27T16:30:26.248Z,22.49
2019-06-27T16:32:55.971Z,22.36
2019-06-27T16:35:25.714Z,22.34
2019-06-27T16:37:57.020Z,22.28
2019-06-27T16:40:26.755Z,22.23
2019-06-27T16:42:58.077Z,22.26
2019-06-27T16:45:27.658Z,22.34
2019-06-27T16:47:57.363Z,22.47
2019-06-27T16:50:27.233Z,22.55
2019-06-27T16:52:57.084Z,22.64
2019-06-27T16:55:28.412Z,22.66
2019-06-27T16:57:58.131Z,22.64
2019-06-27T17:00:27.771Z,22.64
2019-06-27T17:02:58.996Z,22.55
2019-06-27T17:05:30.281Z,22.34
2019-06-27T17:07:59.985Z,22.16
2019-06-27T17:10:29.738Z,22.04
2019-06-27T17:12:59.433Z,21.90
2019-06-27T17:15:29.080Z,21.81
2019-06-27T17:18:16.712Z,21.76
2019-06-27T17:20:46.368Z,21.82
2019-06-27T17:23:16.331Z,21.78
2019-06-27T17:25:46.022Z,21.73
2019-06-27T17:28:15.625Z,21.73
2019-06-27T17:30:45.268Z,21.71
2019-06-27T17:33:14.973Z,21.59
2019-06-27T17:35:44.976Z,21.42
2019-06-27T17:38:14.963Z,21.42
2019-06-27T17:40:44.695Z,21.38
2019-06-27T17:43:17.585Z,21.31
2019-06-27T17:45:47.317Z,21.24
2019-06-27T17:48:19.985Z,21.17
2019-06-27T17:50:49.635Z,21.14
2019-06-27T17:53:19.303Z,21.11
2019-06-27T17:55:49.005Z,21.11
2019-06-27T17:58:18.642Z,21.09
2019-06-27T18:00:48.281Z,21.13
2019-06-27T18:03:17.994Z,21.16
2019-06-27T18:05:47.662Z,21.15
2019-06-27T18:08:17.584Z,21.16
2019-06-27T18:10:49.230Z,21.19
2019-06-27T18:13:18.928Z,21.19
2019-06-27T18:15:48.550Z,21.15
2019-06-27T18:18:18.216Z,21.09
2019-06-27T18:20:47.906Z,21.09
2019-06-27T18:23:17.544Z,21.02
2019-06-27T18:25:47.279Z,20.96
2019-06-27T18:28:16.914Z,20.90
2019-06-27T18:30:46.542Z,20.90
2019-06-27T18:33:16.316Z,20.94
2019-06-27T18:35:45.959Z,20.89
2019-06-27T18:38:15.587Z,20.86
2019-06-27T18:40:47.278Z,20.69
2019-06-27T18:43:16.956Z,20.69
2019-06-27T18:45:46.650Z,20.69
2019-06-27T18:48:16.380Z,20.64
2019-06-27T18:50:47.656Z,20.56
2019-06-27T18:53:17.365Z,20.56
2019-06-27T18:55:47.224Z,20.55
2019-06-27T18:58:17.233Z,20.54
2019-06-27T19:00:46.900Z,20.49
2019-06-27T19:03:17.291Z,20.42
2019-06-27T19:05:46.902Z,20.33
2019-06-27T19:08:19.088Z,20.32
2019-06-27T19:10:50.336Z,20.36
2019-06-27T19:13:19.997Z,20.44
2019-06-27T19:15:49.658Z,20.50
2019-06-27T19:18:37.049Z,20.46
2019-06-27T19:21:08.479Z,20.45
2019-06-27T19:23:54.831Z,20.46
2019-06-27T19:26:27.611Z,20.46
2019-06-27T19:28:57.251Z,20.33
2019-06-27T19:31:27.053Z,20.23
2019-06-27T19:33:56.908Z,20.11
2019-06-27T19:36:26.573Z,19.95
2019-06-27T19:38:56.329Z,19.81
2019-06-27T19:41:25.943Z,19.68
2019-06-27T19:43:55.645Z,19.57
2019-06-27T19:46:25.367Z,19.52
2019-06-27T19:48:54.992Z,19.45
2019-06-27T19:51:24.653Z,19.41
2019-06-27T19:53:57.883Z,19.39
2019-06-27T19:56:28.560Z,19.33
2019-06-27T19:58:58.267Z,19.28
2019-06-27T20:01:28.031Z,19.25
2019-06-27T20:03:57.904Z,19.21
2019-06-27T20:06:27.618Z,19.18
2019-06-27T20:08:57.286Z,19.21
2019-06-27T20:11:26.928Z,19.23
2019-06-27T20:13:56.553Z,19.22
2019-06-27T20:16:29.295Z,19.20
2019-06-27T20:18:58.919Z,19.17
2019-06-27T20:21:28.579Z,19.17
2019-06-27T20:23:58.417Z,19.13
2019-06-27T20:26:28.121Z,19.11
2019-06-27T20:28:58.087Z,19.11
2019-06-27T20:31:27.785Z,19.10
2019-06-27T20:33:57.531Z,19.12
2019-06-27T20:36:27.235Z,19.07
2019-06-27T20:38:56.938Z,19.03
2019-06-27T20:41:29.363Z,19.00
2019-06-27T20:43:58.350Z,18.97
2019-06-27T20:46:28.035Z,18.93
2019-06-27T20:48:57.660Z,18.93
2019-06-27T20:51:27.396Z,18.92
2019-06-27T20:53:57.808Z,18.90
2019-06-27T20:56:30.320Z,18.88
2019-06-27T20:58:59.020Z,18.94
2019-06-27T21:01:31.478Z,19.02
2019-06-27T21:04:00.079Z,19.04
2019-06-27T21:06:29.858Z,19.02
2019-06-27T21:08:59.572Z,18.95
2019-06-27T21:11:29.379Z,18.93
2019-06-27T21:13:59.069Z,18.91
2019-06-27T21:16:28.887Z,18.93
2019-06-27T21:18:58.522Z,18.94
2019-06-27T21:21:29.858Z,18.96
2019-06-27T21:24:00.612Z,18.95
2019-06-27T21:26:30.285Z,18.92
2019-06-27T21:29:00.662Z,18.93
2019-06-27T21:31:30.394Z,18.97
2019-06-27T21:34:00.139Z,19.01
2019-06-27T21:36:29.797Z,19.06
2019-06-27T21:39:07.484Z,19.05
2019-06-27T21:41:30.952Z,19.12
2019-06-27T21:44:00.846Z,19.12
2019-06-27T21:46:30.720Z,19.13
2019-06-27T21:49:00.381Z,19.18
2019-06-27T21:51:30.072Z,19.23
2019-06-27T21:53:59.773Z,19.30
2019-06-27T21:56:29.404Z,19.34
2019-06-27T21:58:59.063Z,19.32
2019-06-27T22:01:28.836Z,19.31
2019-06-27T22:03:59.533Z,19.39
2019-06-27T22:06:29.227Z,19.47
2019-06-27T22:08:58.958Z,19.52
2019-06-27T22:11:28.667Z,19.55
2019-06-27T22:13:58.404Z,19.59
2019-06-27T22:16:28.172Z,19.63
2019-06-27T22:18:57.881Z,19.67
2019-06-27T22:21:27.683Z,19.64
2019-06-27T22:23:57.396Z,19.56
2019-06-27T22:26:27.080Z,19.50
2019-06-27T22:28:56.716Z,19.45
2019-06-27T22:31:26.452Z,19.39
2019-06-27T22:33:56.114Z,19.36
2019-06-27T22:36:25.769Z,19.34
2019-06-27T22:39:13.302Z,19.34
2019-06-27T22:42:00.742Z,19.33
2019-06-27T22:44:48.430Z,19.26
2019-06-27T22:47:36.401Z,19.25
2019-06-27T22:50:09.279Z,19.23
2019-06-27T22:52:46.761Z,19.18
2019-06-27T22:55:30.300Z,19.17
2019-06-27T22:57:59.927Z,19.20
2019-06-27T23:00:29.589Z,19.17
2019-06-27T23:02:59.286Z,19.11
2019-06-27T23:05:29.098Z,19.04
2019-06-27T23:07:58.757Z,19.07
2019-06-27T23:10:29.036Z,19.07
2019-06-27T23:12:58.694Z,19.06
2019-06-27T23:15:28.626Z,19.03
2019-06-27T23:17:58.303Z,19.02
2019-06-27T23:20:27.968Z,19.05
2019-06-27T23:22:57.626Z,19.05
2019-06-27T23:25:27.305Z,19.04
2019-06-27T23:27:57.050Z,18.98
2019-06-27T23:30:26.683Z,18.96
2019-06-27T23:32:56.498Z,18.95
2019-06-27T23:35:26.201Z,18.93
2019-06-27T23:37:55.842Z,18.89
2019-06-27T23:40:25.580Z,18.89
2019-06-27T23:42:55.496Z,18.85
2019-06-27T23:45:25.131Z,18.81
2019-06-27T23:47:54.886Z,18.81
2019-06-27T23:50:24.531Z,18.80
2019-06-27T23:52:55.002Z,18.79
2019-06-27T23:55:24.705Z,18.77
2019-06-27T23:57:54.368Z,18.78
